createdAt,value
2018-05-04T00:00:19.708Z,57.70
2018-05-04T00:00:52.977Z,57.50
2018-05-04T00:01:26.237Z,57.70
2018-05-04T00:01:59.511Z,56.90
2018-05-04T00:02:32.772Z,57.20
2018-05-04T00:03:06.057Z,57.50
2018-05-04T00:03:39.315Z,57.50
2018-05-04T00:04:12.585Z,57.60
2018-05-04T00:04:45.870Z,57.50
2018-05-04T00:05:19.132Z,57.60
2018-05-04T00:05:52.398Z,57.20
2018-05-04T00:06:25.660Z,56.90
2018-05-04T00:06:59.700Z,57.40
2018-05-04T00:07:32.964Z,57.40
2018-05-04T00:08:06.247Z,57.80
2018-05-04T00:08:39.510Z,57.70
2018-05-04T00:09:13.528Z,57.70
2018-05-04T00:09:46.797Z,57.70
2018-05-04T00:10:20.084Z,57.70
2018-05-04T00:10:53.344Z,57.20
2018-05-04T00:11:26.605Z,57.20
2018-05-04T00:11:59.866Z,57.60
2018-05-04T00:12:33.207Z,57.80
2018-05-04T00:13:06.500Z,57.80
2018-05-04T00:13:39.765Z,57.40
2018-05-04T00:14:13.011Z,57.70
2018-05-04T00:14:46.288Z,58.10
2018-05-04T00:15:20.315Z,57.90
2018-05-04T00:15:53.605Z,57.90
2018-05-04T00:16:26.866Z,58.00
2018-05-04T00:17:00.904Z,57.60
2018-05-04T00:17:34.152Z,57.50
2018-05-04T00:18:07.433Z,57.80
2018-05-04T00:18:40.691Z,57.80
2018-05-04T00:19:14.745Z,57.50
2018-05-04T00:19:48.013Z,57.50
2018-05-04T00:20:21.263Z,57.30
2018-05-04T00:20:54.549Z,57.10
2018-05-04T00:21:27.812Z,57.50
2018-05-04T00:22:01.081Z,58.00
2018-05-04T00:22:34.340Z,57.40
2018-05-04T00:23:07.645Z,57.00
2018-05-04T00:23:41.692Z,57.30
2018-05-04T00:24:14.968Z,57.30
2018-05-04T00:24:48.231Z,57.60
2018-05-04T00:25:21.482Z,57.60
2018-05-04T00:25:55.537Z,58.00
2018-05-04T00:26:29.322Z,58.00
2018-05-04T00:27:02.596Z,58.10
2018-05-04T00:27:35.856Z,57.90
2018-05-04T00:28:09.125Z,57.30
2018-05-04T00:28:43.165Z,57.50
2018-05-04T00:29:16.447Z,57.50
2018-05-04T00:29:49.704Z,57.90
2018-05-04T00:30:22.970Z,57.70
2018-05-04T00:30:56.230Z,57.30
2018-05-04T00:31:30.284Z,57.70
2018-05-04T00:32:03.543Z,57.60
2018-05-04T00:32:36.819Z,57.80
2018-05-04T00:33:10.102Z,58.10
2018-05-04T00:33:43.391Z,57.40
2018-05-04T00:34:16.676Z,58.00
2018-05-04T00:34:49.945Z,57.90
2018-05-04T00:35:23.216Z,58.10
2018-05-04T00:35:56.476Z,57.70
2018-05-04T00:36:30.514Z,57.40
2018-05-04T00:37:03.774Z,57.40
2018-05-04T00:37:37.045Z,57.70
2018-05-04T00:38:10.313Z,57.60
2018-05-04T00:38:43.590Z,57.40
2018-05-04T00:39:17.628Z,57.60
2018-05-04T00:39:50.889Z,57.60
2018-05-04T00:40:24.159Z,57.80
2018-05-04T00:40:58.252Z,57.50
2018-05-04T00:41:31.516Z,57.50
2018-05-04T00:42:04.786Z,57.90
2018-05-04T00:42:38.112Z,57.30
2018-05-04T00:43:11.368Z,57.30
2018-05-04T00:43:44.650Z,57.70
2018-05-04T00:44:18.689Z,57.80
2018-05-04T00:44:51.956Z,57.80
2018-05-04T00:45:25.211Z,57.50
2018-05-04T00:45:59.261Z,57.60
2018-05-04T00:46:32.513Z,57.60
2018-05-04T00:47:05.769Z,57.40
2018-05-04T00:47:39.801Z,57.30
2018-05-04T00:48:13.832Z,57.30
2018-05-04T00:48:47.114Z,57.30
2018-05-04T00:49:20.379Z,57.00
2018-05-04T00:49:53.663Z,57.10
2018-05-04T00:50:26.932Z,57.50
2018-05-04T00:51:00.625Z,57.10
2018-05-04T00:51:33.901Z,57.10
2018-05-04T00:52:07.165Z,56.80
2018-05-04T00:52:40.420Z,56.40
2018-05-04T00:53:13.685Z,56.70
2018-05-04T00:53:58.949Z,57.00
2018-05-04T00:54:32.973Z,57.40
2018-05-04T00:55:06.252Z,57.40
2018-05-04T00:55:39.515Z,57.50
2018-05-04T00:56:12.781Z,57.60
2018-05-04T00:56:46.812Z,57.60
2018-05-04T00:57:20.100Z,57.60
2018-05-04T00:57:53.364Z,57.00
2018-05-04T00:58:26.633Z,57.40
2018-05-04T00:59:00.700Z,57.20
2018-05-04T00:59:33.969Z,57.20
2018-05-04T01:00:07.249Z,57.40
2018-05-04T01:00:40.504Z,57.70
2018-05-04T01:01:14.710Z,57.50
2018-05-04T01:01:47.977Z,57.50
2018-05-04T01:02:21.234Z,57.50
2018-05-04T01:02:55.271Z,57.80
2018-05-04T01:03:28.537Z,57.80
2018-05-04T01:04:01.909Z,57.70
2018-05-04T01:04:35.177Z,57.50
2018-05-04T01:05:08.437Z,57.70
2018-05-04T01:05:41.700Z,57.60
2018-05-04T01:06:14.976Z,57.30
2018-05-04T01:06:48.243Z,57.10
2018-05-04T01:07:21.540Z,57.00
2018-05-04T01:07:54.807Z,57.60
2018-05-04T01:08:28.086Z,57.40
2018-05-04T01:09:01.347Z,57.60
2018-05-04T01:09:34.623Z,57.60
2018-05-04T01:10:07.905Z,57.40
2018-05-04T01:10:41.182Z,57.30
2018-05-04T01:11:14.453Z,57.40
2018-05-04T01:11:48.043Z,57.40
2018-05-04T01:12:21.291Z,57.50
2018-05-04T01:12:55.336Z,57.00
2018-05-04T01:13:28.597Z,56.90
2018-05-04T01:14:01.862Z,56.90
2018-05-04T01:14:35.910Z,56.90
2018-05-04T01:15:09.185Z,56.90
2018-05-04T01:15:43.231Z,57.00
2018-05-04T01:16:17.269Z,56.90
2018-05-04T01:16:50.525Z,56.90
2018-05-04T01:17:23.780Z,57.00
2018-05-04T01:17:57.817Z,57.20
2018-05-04T01:18:31.089Z,57.20
2018-05-04T01:19:04.364Z,57.30
2018-05-04T01:19:38.396Z,57.30
2018-05-04T01:20:11.652Z,57.20
2018-05-04T01:20:44.913Z,57.10
2018-05-04T01:21:18.189Z,57.00
2018-05-04T01:21:51.464Z,56.90
2018-05-04T01:22:25.489Z,57.10
2018-05-04T01:22:58.744Z,57.10
2018-05-04T01:23:32.781Z,57.20
2018-05-04T01:24:06.038Z,57.20
2018-05-04T01:24:39.308Z,57.00
2018-05-04T01:25:12.580Z,57.30
2018-05-04T01:25:46.606Z,57.20
2018-05-04T01:26:19.869Z,57.10
2018-05-04T01:26:53.137Z,57.30
2018-05-04T01:27:27.168Z,56.90
2018-05-04T01:28:00.437Z,56.90
2018-05-04T01:28:33.702Z,57.70
2018-05-04T01:29:07.727Z,57.20
2018-05-04T01:29:41.039Z,57.20
2018-05-04T01:30:14.303Z,57.20
2018-05-04T01:30:47.561Z,57.10
2018-05-04T01:31:20.822Z,57.40
2018-05-04T01:31:54.080Z,57.50
2018-05-04T01:32:27.794Z,57.30
2018-05-04T01:33:01.029Z,57.00
2018-05-04T01:33:34.279Z,56.60
2018-05-04T01:34:07.536Z,57.10
2018-05-04T01:34:40.808Z,57.30
2018-05-04T01:35:14.065Z,57.30
2018-05-04T01:35:48.096Z,56.90
2018-05-04T01:36:21.357Z,56.80
2018-05-04T01:36:55.384Z,57.10
2018-05-04T01:37:28.661Z,57.10
2018-05-04T01:38:01.929Z,57.00
2018-05-04T01:38:35.184Z,56.70
2018-05-04T01:39:09.217Z,57.00
2018-05-04T01:39:42.535Z,57.00
2018-05-04T01:40:15.773Z,57.00
2018-05-04T01:40:49.036Z,57.20
2018-05-04T01:41:23.056Z,57.20
2018-05-04T01:41:56.315Z,57.20
2018-05-04T01:42:29.591Z,57.20
2018-05-04T01:43:02.886Z,57.10
2018-05-04T01:43:36.148Z,56.90
2018-05-04T01:44:09.416Z,57.10
2018-05-04T01:44:43.459Z,56.80
2018-05-04T01:45:16.728Z,57.20
2018-05-04T01:45:50.361Z,57.20
2018-05-04T01:46:23.594Z,57.30
2018-05-04T01:46:56.856Z,57.30
2018-05-04T01:47:30.124Z,57.40
2018-05-04T01:48:04.152Z,57.70
2018-05-04T01:48:37.431Z,57.20
2018-05-04T01:49:10.697Z,57.50
2018-05-04T01:49:44.727Z,57.90
2018-05-04T01:50:17.981Z,57.50
2018-05-04T01:50:51.246Z,57.60
2018-05-04T01:51:25.289Z,57.60
2018-05-04T01:51:58.577Z,57.60
2018-05-04T01:52:31.860Z,57.30
2018-05-04T01:53:05.503Z,57.40
2018-05-04T01:53:38.845Z,57.40
2018-05-04T01:54:12.129Z,57.60
2018-05-04T01:54:45.406Z,57.70
2018-05-04T01:55:18.680Z,57.70
2018-05-04T01:55:51.941Z,57.70
2018-05-04T01:56:25.199Z,57.70
2018-05-04T01:56:58.458Z,57.80
2018-05-04T01:57:32.480Z,57.90
2018-05-04T01:58:05.742Z,57.80
2018-05-04T01:58:39.770Z,57.90
2018-05-04T01:59:13.044Z,57.90
2018-05-04T01:59:46.332Z,58.00
2018-05-04T02:00:19.595Z,57.90
2018-05-04T02:00:52.877Z,58.10
2018-05-04T02:01:26.160Z,58.00
2018-05-04T02:01:59.428Z,58.10
2018-05-04T02:02:32.688Z,58.10
2018-05-04T02:03:06.725Z,58.00
2018-05-04T02:03:39.984Z,58.00
2018-05-04T02:04:13.240Z,58.00
2018-05-04T02:04:47.303Z,58.10
2018-05-04T02:05:20.589Z,58.10
2018-05-04T02:05:53.866Z,58.10
2018-05-04T02:06:27.140Z,58.00
2018-05-04T02:07:00.428Z,57.70
2018-05-04T02:07:33.710Z,58.00
2018-05-04T02:08:06.980Z,57.90
2018-05-04T02:08:40.238Z,57.90
2018-05-04T02:09:13.518Z,58.00
2018-05-04T02:09:46.804Z,57.90
2018-05-04T02:10:20.057Z,58.10
2018-05-04T02:10:54.096Z,58.20
2018-05-04T02:11:27.361Z,58.20
2018-05-04T02:12:00.632Z,58.20
2018-05-04T02:12:33.908Z,57.90
2018-05-04T02:13:07.158Z,58.00
2018-05-04T02:13:41.180Z,58.20
2018-05-04T02:14:18.400Z,58.20
2018-05-04T02:14:51.642Z,58.20
2018-05-04T02:15:24.909Z,58.10
2018-05-04T02:15:58.941Z,58.10
2018-05-04T02:16:32.238Z,58.10
2018-05-04T02:17:05.479Z,58.20
2018-05-04T02:17:38.757Z,58.20
2018-05-04T02:18:12.019Z,58.10
2018-05-04T02:18:45.319Z,58.30
2018-05-04T02:19:18.571Z,58.30
2018-05-04T02:19:52.600Z,58.40
2018-05-04T02:20:25.857Z,58.40
2018-05-04T02:20:59.886Z,58.40
2018-05-04T02:21:33.149Z,58.40
2018-05-04T02:22:06.407Z,58.40
2018-05-04T02:22:40.428Z,58.60
2018-05-04T02:23:13.684Z,58.60
2018-05-04T02:23:46.953Z,58.60
2018-05-04T02:24:20.212Z,58.60
2018-05-04T02:24:53.484Z,58.30
2018-05-04T02:25:26.776Z,58.50
2018-05-04T02:26:00.049Z,58.60
2018-05-04T02:26:33.322Z,58.70
2018-05-04T02:27:06.576Z,58.80
2018-05-04T02:27:39.824Z,58.80
2018-05-04T02:28:13.866Z,58.80
2018-05-04T02:28:47.126Z,58.80
2018-05-04T02:29:20.370Z,58.80
2018-05-04T02:29:54.493Z,58.80
2018-05-04T02:30:27.768Z,58.80
2018-05-04T02:31:01.796Z,58.90
2018-05-04T02:31:35.052Z,58.90
2018-05-04T02:32:08.346Z,58.90
2018-05-04T02:32:42.355Z,59.10
2018-05-04T02:33:15.629Z,59.00
2018-05-04T02:33:48.888Z,59.10
2018-05-04T02:34:22.144Z,59.10
2018-05-04T02:34:56.138Z,59.20
2018-05-04T02:35:29.949Z,59.00
2018-05-04T02:36:03.204Z,58.80
2018-05-04T02:36:36.473Z,59.00
2018-05-04T02:37:09.756Z,59.20
2018-05-04T02:37:43.037Z,59.30
2018-05-04T02:38:16.404Z,59.30
2018-05-04T02:38:49.651Z,59.20
2018-05-04T02:39:22.908Z,59.30
2018-05-04T02:39:56.951Z,59.30
2018-05-04T02:40:30.245Z,59.30
2018-05-04T02:41:03.519Z,59.30
2018-05-04T02:41:36.803Z,59.30
2018-05-04T02:42:10.078Z,59.30
2018-05-04T02:42:43.342Z,59.20
2018-05-04T02:43:16.597Z,59.30
2018-05-04T02:43:49.877Z,59.30
2018-05-04T02:44:23.155Z,59.20
2018-05-04T02:44:57.189Z,59.10
2018-05-04T02:45:30.472Z,59.10
2018-05-04T02:46:03.749Z,58.80
2018-05-04T02:46:37.025Z,59.00
2018-05-04T02:47:10.286Z,59.10
2018-05-04T02:47:43.552Z,59.10
2018-05-04T02:48:16.815Z,59.20
2018-05-04T02:48:50.840Z,59.30
2018-05-04T02:49:24.109Z,59.30
2018-05-04T02:49:57.386Z,59.20
2018-05-04T02:50:31.427Z,59.30
2018-05-04T02:51:04.688Z,59.30
2018-05-04T02:51:37.962Z,59.40
2018-05-04T02:52:11.237Z,59.30
2018-05-04T02:52:44.472Z,59.40
2018-05-04T02:53:17.750Z,59.30
2018-05-04T02:53:51.018Z,59.30
2018-05-04T02:54:24.273Z,59.40
2018-05-04T02:54:57.551Z,60.00
2018-05-04T02:55:30.839Z,59.50
2018-05-04T02:56:04.082Z,59.40
2018-05-04T02:56:38.109Z,59.30
2018-05-04T02:57:11.365Z,59.30
2018-05-04T02:57:44.634Z,59.20
2018-05-04T02:58:17.889Z,59.10
2018-05-04T02:58:51.148Z,59.30
2018-05-04T02:59:24.424Z,59.50
2018-05-04T02:59:57.702Z,59.60
2018-05-04T03:00:30.972Z,59.50
2018-05-04T03:01:04.273Z,59.60
2018-05-04T03:01:37.543Z,59.70
2018-05-04T03:02:10.819Z,59.70
2018-05-04T03:02:44.828Z,59.70
2018-05-04T03:03:18.096Z,59.70
2018-05-04T03:03:51.377Z,59.60
2018-05-04T03:04:24.648Z,59.60
2018-05-04T03:04:57.914Z,59.60
2018-05-04T03:05:31.202Z,59.60
2018-05-04T03:06:04.453Z,59.40
2018-05-04T03:06:38.475Z,59.50
2018-05-04T03:07:11.757Z,59.50
2018-05-04T03:07:45.017Z,59.50
2018-05-04T03:08:18.272Z,59.60
2018-05-04T03:08:51.565Z,59.60
2018-05-04T03:09:25.600Z,59.80
2018-05-04T03:09:58.844Z,59.70
2018-05-04T03:10:32.131Z,59.70
2018-05-04T03:11:06.170Z,59.90
2018-05-04T03:11:39.443Z,59.80
2018-05-04T03:12:13.485Z,58.70
2018-05-04T03:12:46.741Z,58.70
2018-05-04T03:13:20.850Z,59.70
2018-05-04T03:13:54.884Z,59.90
2018-05-04T03:14:28.931Z,59.70
2018-05-04T03:15:02.208Z,59.70
2018-05-04T03:15:35.476Z,59.70
2018-05-04T03:16:08.743Z,59.60
2018-05-04T03:16:42.413Z,59.60
2018-05-04T03:17:15.635Z,59.60
2018-05-04T03:17:48.973Z,59.60
2018-05-04T03:18:22.264Z,59.60
2018-05-04T03:18:55.520Z,59.60
2018-05-04T03:19:29.545Z,59.70
2018-05-04T03:20:02.827Z,59.60
2018-05-04T03:20:36.095Z,59.60
2018-05-04T03:21:10.133Z,59.60
2018-05-04T03:21:43.416Z,59.60
2018-05-04T03:22:17.431Z,59.70
2018-05-04T03:22:50.717Z,59.70
2018-05-04T03:23:23.989Z,59.80
2018-05-04T03:23:57.244Z,59.80
2018-05-04T03:24:30.515Z,59.80
2018-05-04T03:25:03.768Z,59.50
2018-05-04T03:25:37.047Z,59.30
2018-05-04T03:26:10.324Z,59.60
2018-05-04T03:26:44.340Z,59.70
2018-05-04T03:27:17.599Z,59.60
2018-05-04T03:27:51.621Z,59.60
2018-05-04T03:28:24.884Z,59.60
2018-05-04T03:28:58.140Z,59.60
2018-05-04T03:29:31.404Z,59.60
2018-05-04T03:30:04.690Z,59.60
2018-05-04T03:30:37.946Z,59.60
2018-05-04T03:31:11.233Z,59.50
2018-05-04T03:31:44.480Z,59.60
2018-05-04T03:32:17.737Z,59.50
2018-05-04T03:32:51.773Z,59.60
2018-05-04T03:33:25.029Z,59.50
2018-05-04T03:33:58.296Z,59.50
2018-05-04T03:34:32.329Z,59.50
2018-05-04T03:35:05.606Z,59.50
2018-05-04T03:35:39.637Z,59.30
2018-05-04T03:36:12.915Z,59.50
2018-05-04T03:36:46.181Z,59.50
2018-05-04T03:37:19.898Z,59.40
2018-05-04T03:37:53.160Z,59.40
2018-05-04T03:38:26.437Z,59.40
2018-05-04T03:38:59.705Z,59.50
2018-05-04T03:39:33.745Z,59.60
2018-05-04T03:40:07.774Z,59.70
2018-05-04T03:40:41.056Z,59.70
2018-05-04T03:41:14.341Z,59.60
2018-05-04T03:41:47.607Z,59.60
2018-05-04T03:42:20.872Z,59.70
2018-05-04T03:42:54.957Z,59.70
2018-05-04T03:43:28.185Z,59.70
2018-05-04T03:44:01.445Z,59.70
2018-05-04T03:44:35.472Z,59.80
2018-05-04T03:45:08.741Z,59.80
2018-05-04T03:45:42.005Z,59.70
2018-05-04T03:46:15.284Z,59.70
2018-05-04T03:46:48.557Z,59.40
2018-05-04T03:47:22.585Z,59.80
2018-05-04T03:47:55.852Z,59.80
2018-05-04T03:48:29.147Z,59.70
2018-05-04T03:49:02.417Z,59.70
2018-05-04T03:49:36.462Z,59.70
2018-05-04T03:50:09.737Z,59.70
2018-05-04T03:50:43.013Z,59.70
2018-05-04T03:51:16.276Z,59.70
2018-05-04T03:51:49.541Z,59.70
2018-05-04T03:52:22.806Z,59.80
2018-05-04T03:52:56.067Z,59.70
2018-05-04T03:53:29.356Z,59.70
2018-05-04T03:54:02.630Z,59.80
2018-05-04T03:54:35.898Z,59.80
2018-05-04T03:55:09.931Z,59.90
2018-05-04T03:55:43.212Z,59.80
2018-05-04T03:56:16.471Z,59.90
2018-05-04T03:56:49.760Z,60.00
2018-05-04T03:57:34.988Z,60.00
2018-05-04T03:58:20.104Z,60.00
2018-05-04T03:59:05.165Z,60.10
2018-05-04T03:59:51.135Z,60.20
2018-05-04T04:00:36.141Z,60.10
2018-05-04T04:01:22.028Z,60.60
2018-05-04T04:02:07.094Z,60.60
2018-05-04T04:02:52.208Z,60.60
2018-05-04T04:03:37.297Z,60.70
2018-05-04T04:04:12.801Z,60.90
2018-05-04T04:04:46.097Z,60.80
2018-05-04T04:05:19.375Z,61.00
2018-05-04T04:05:52.649Z,61.10
2018-05-04T04:06:26.023Z,61.00
2018-05-04T04:06:59.302Z,61.10
2018-05-04T04:07:32.569Z,61.20
2018-05-04T04:08:06.600Z,61.30
2018-05-04T04:08:39.860Z,61.20
2018-05-04T04:09:13.121Z,61.30
2018-05-04T04:09:46.390Z,61.30
2018-05-04T04:10:19.648Z,61.40
2018-05-04T04:10:53.686Z,61.50
2018-05-04T04:11:26.978Z,61.50
2018-05-04T04:12:00.241Z,61.50
2018-05-04T04:12:33.816Z,61.60
2018-05-04T04:13:06.997Z,61.70
2018-05-04T04:13:40.269Z,61.80
2018-05-04T04:14:13.532Z,61.90
2018-05-04T04:14:46.801Z,62.10
2018-05-04T04:15:20.069Z,62.10
2018-05-04T04:15:54.113Z,62.10
2018-05-04T04:16:27.372Z,62.10
2018-05-04T04:17:00.646Z,62.00
2018-05-04T04:17:33.921Z,62.10
2018-05-04T04:18:07.173Z,62.10
2018-05-04T04:18:40.468Z,62.20
2018-05-04T04:19:13.736Z,62.20
2018-05-04T04:19:47.476Z,62.20
2018-05-04T04:20:20.748Z,62.30
2018-05-04T04:20:53.997Z,62.10
2018-05-04T04:21:28.037Z,62.10
2018-05-04T04:22:01.312Z,62.10
2018-05-04T04:22:34.564Z,62.10
2018-05-04T04:23:07.832Z,62.20
2018-05-04T04:23:41.861Z,62.20
2018-05-04T04:24:15.112Z,62.20
2018-05-04T04:24:48.380Z,62.20
2018-05-04T04:25:22.411Z,62.80
2018-05-04T04:25:55.669Z,62.40
2018-05-04T04:26:28.929Z,62.40
2018-05-04T04:27:02.222Z,62.60
2018-05-04T04:27:36.252Z,62.50
2018-05-04T04:28:09.522Z,62.50
2018-05-04T04:28:43.549Z,62.50
2018-05-04T04:29:16.803Z,62.50
2018-05-04T04:29:50.073Z,62.40
2018-05-04T04:30:24.102Z,62.50
2018-05-04T04:30:57.376Z,62.40
2018-05-04T04:31:30.635Z,62.50
2018-05-04T04:32:03.939Z,62.60
2018-05-04T04:32:37.196Z,62.60
2018-05-04T04:33:10.465Z,62.70
2018-05-04T04:33:43.752Z,62.70
2018-05-04T04:34:17.012Z,62.70
2018-05-04T04:34:50.280Z,62.80
2018-05-04T04:35:23.544Z,63.00
2018-05-04T04:35:56.881Z,63.00
2018-05-04T04:36:30.152Z,63.20
2018-05-04T04:37:04.210Z,63.10
2018-05-04T04:37:37.477Z,63.00
2018-05-04T04:38:10.737Z,63.10
2018-05-04T04:38:44.014Z,63.20
2018-05-04T04:39:17.264Z,63.20
2018-05-04T04:39:50.542Z,63.20
2018-05-04T04:40:23.788Z,63.10
2018-05-04T04:40:57.052Z,63.30
2018-05-04T04:41:30.561Z,63.50
2018-05-04T04:42:03.929Z,63.70
2018-05-04T04:42:37.229Z,63.60
2018-05-04T04:43:10.495Z,63.40
2018-05-04T04:43:45.268Z,63.80
2018-05-04T04:44:18.577Z,63.70
2018-05-04T04:44:51.825Z,63.70
2018-05-04T04:45:25.125Z,63.90
2018-05-04T04:45:58.386Z,63.90
2018-05-04T04:46:31.670Z,64.00
2018-05-04T04:47:04.921Z,64.00
2018-05-04T04:47:39.680Z,64.10
2018-05-04T04:48:12.952Z,63.90
2018-05-04T04:48:46.245Z,64.20
2018-05-04T04:49:19.497Z,64.20
2018-05-04T04:49:52.752Z,64.10
2018-05-04T04:50:26.038Z,64.10
2018-05-04T04:51:00.321Z,64.10
2018-05-04T04:51:33.574Z,63.90
2018-05-04T04:52:07.604Z,64.10
2018-05-04T04:52:40.896Z,64.00
2018-05-04T04:53:14.941Z,64.20
2018-05-04T04:53:48.181Z,64.20
2018-05-04T04:54:22.217Z,64.40
2018-05-04T04:54:55.487Z,64.30
2018-05-04T04:55:28.733Z,64.30
2018-05-04T04:56:02.759Z,64.40
2018-05-04T04:56:36.017Z,64.50
2018-05-04T04:57:10.082Z,64.50
2018-05-04T04:57:43.352Z,64.50
2018-05-04T04:58:16.612Z,64.50
2018-05-04T04:58:49.879Z,64.50
2018-05-04T04:59:23.161Z,64.70
2018-05-04T04:59:56.440Z,64.60
2018-05-04T05:00:29.693Z,64.80
2018-05-04T05:01:03.720Z,65.30
2018-05-04T05:01:37.644Z,65.30
2018-05-04T05:02:11.925Z,65.50
2018-05-04T05:02:45.411Z,65.40
2018-05-04T05:03:18.675Z,66.20
2018-05-04T05:03:51.955Z,65.50
2018-05-04T05:04:25.215Z,65.60
2018-05-04T05:04:59.268Z,65.30
2018-05-04T05:05:32.532Z,65.30
2018-05-04T05:06:05.797Z,65.30
2018-05-04T05:06:39.071Z,65.10
2018-05-04T05:07:12.348Z,65.20
2018-05-04T05:07:45.617Z,65.10
2018-05-04T05:08:19.642Z,65.00
2018-05-04T05:08:52.905Z,65.00
2018-05-04T05:09:26.162Z,64.70
2018-05-04T05:10:00.184Z,64.90
2018-05-04T05:10:33.460Z,64.90
2018-05-04T05:11:06.718Z,64.90
2018-05-04T05:11:40.746Z,64.90
2018-05-04T05:12:14.031Z,64.90
2018-05-04T05:12:47.303Z,65.00
2018-05-04T05:13:20.560Z,65.80
2018-05-04T05:13:54.612Z,64.70
2018-05-04T05:14:27.885Z,64.60
2018-05-04T05:15:01.159Z,64.40
2018-05-04T05:15:34.413Z,64.60
2018-05-04T05:16:07.837Z,64.60
2018-05-04T05:16:41.097Z,64.30
2018-05-04T05:17:14.376Z,64.20
2018-05-04T05:17:47.654Z,64.10
2018-05-04T05:18:20.913Z,64.00
2018-05-04T05:18:54.175Z,64.10
2018-05-04T05:19:28.204Z,64.10
2018-05-04T05:20:01.481Z,64.10
2018-05-04T05:20:34.727Z,64.10
2018-05-04T05:21:07.995Z,64.10
2018-05-04T05:21:41.268Z,64.50
2018-05-04T05:22:15.367Z,63.80
2018-05-04T05:22:48.698Z,63.80
2018-05-04T05:23:21.966Z,63.90
2018-05-04T05:23:55.993Z,64.30
2018-05-04T05:24:29.272Z,64.30
2018-05-04T05:25:02.529Z,64.00
2018-05-04T05:25:35.805Z,65.00
2018-05-04T05:26:09.077Z,65.20
2018-05-04T05:26:43.138Z,64.40
2018-05-04T05:27:16.353Z,64.40
2018-05-04T05:27:49.619Z,64.60
2018-05-04T05:28:22.882Z,64.60
2018-05-04T05:28:56.162Z,64.70
2018-05-04T05:29:29.492Z,64.70
2018-05-04T05:30:02.756Z,64.90
2018-05-04T05:30:36.787Z,65.00
2018-05-04T05:31:10.048Z,65.00
2018-05-04T05:31:43.308Z,64.90
2018-05-04T05:32:17.356Z,64.80
2018-05-04T05:32:50.641Z,64.80
2018-05-04T05:33:23.905Z,65.00
2018-05-04T05:33:57.177Z,65.20
2018-05-04T05:34:30.432Z,65.40
2018-05-04T05:35:04.476Z,65.90
2018-05-04T05:35:37.741Z,65.90
2018-05-04T05:36:11.000Z,65.90
2018-05-04T05:36:45.051Z,65.50
2018-05-04T05:37:18.322Z,65.50
2018-05-04T05:37:51.601Z,66.00
2018-05-04T05:38:24.872Z,66.20
2018-05-04T05:38:58.150Z,66.00
2018-05-04T05:39:32.192Z,67.40
2018-05-04T05:40:06.221Z,66.50
2018-05-04T05:40:39.489Z,66.40
2018-05-04T05:41:13.531Z,67.00
2018-05-04T05:41:46.788Z,67.00
2018-05-04T05:42:20.308Z,66.80
2018-05-04T05:42:53.594Z,66.80
2018-05-04T05:43:27.388Z,66.20
2018-05-04T05:44:00.652Z,66.90
2018-05-04T05:44:33.931Z,66.50
2018-05-04T05:45:07.195Z,66.90
2018-05-04T05:45:40.448Z,67.00
2018-05-04T05:46:13.706Z,66.90
2018-05-04T05:46:47.743Z,66.50
2018-05-04T05:47:21.012Z,66.50
2018-05-04T05:47:54.292Z,66.30
2018-05-04T05:48:28.314Z,67.30
2018-05-04T05:49:01.572Z,67.10
2018-05-04T05:49:34.841Z,65.40
2018-05-04T05:50:08.876Z,65.80
2018-05-04T05:50:42.154Z,65.70
2018-05-04T05:51:15.397Z,65.60
2018-05-04T05:51:48.671Z,65.20
2018-05-04T05:52:22.698Z,65.60
2018-05-04T05:52:55.984Z,65.60
2018-05-04T05:53:29.238Z,65.20
2018-05-04T05:54:02.508Z,65.00
2018-05-04T05:54:36.614Z,65.60
2018-05-04T05:55:09.813Z,65.60
2018-05-04T05:55:43.072Z,64.70
2018-05-04T05:56:17.108Z,64.90
2018-05-04T05:56:50.396Z,64.80
2018-05-04T05:57:24.424Z,64.90
2018-05-04T05:57:57.753Z,64.90
2018-05-04T05:58:30.981Z,63.90
2018-05-04T05:59:04.236Z,63.90
2018-05-04T05:59:37.501Z,64.20
2018-05-04T06:00:10.760Z,62.00
2018-05-04T06:00:44.020Z,61.50
2018-05-04T06:01:18.060Z,61.30
2018-05-04T06:01:51.328Z,61.20
2018-05-04T06:02:24.625Z,62.00
2018-05-04T06:02:57.876Z,62.80
2018-05-04T06:03:31.135Z,61.20
2018-05-04T06:04:04.628Z,61.50
2018-05-04T06:04:37.794Z,61.00
2018-05-04T06:05:11.874Z,62.60
2018-05-04T06:05:45.129Z,62.50
2018-05-04T06:06:18.395Z,61.60
2018-05-04T06:06:51.668Z,60.80
2018-05-04T06:07:24.923Z,61.20
2018-05-04T06:07:58.976Z,63.60
2018-05-04T06:08:32.309Z,63.50
2018-05-04T06:09:05.573Z,63.20
2018-05-04T06:09:39.596Z,61.70
2018-05-04T06:10:12.853Z,61.70
2018-05-04T06:10:46.895Z,61.90
2018-05-04T06:11:20.161Z,61.90
2018-05-04T06:11:53.434Z,60.60
2018-05-04T06:12:27.478Z,61.20
2018-05-04T06:13:00.764Z,61.20
2018-05-04T06:13:34.024Z,61.70
2018-05-04T06:14:07.293Z,61.40
2018-05-04T06:14:40.559Z,61.30
2018-05-04T06:15:14.590Z,61.80
2018-05-04T06:15:47.840Z,61.80
2018-05-04T06:16:21.108Z,62.10
2018-05-04T06:16:54.363Z,63.00
2018-05-04T06:17:27.636Z,62.10
2018-05-04T06:18:02.018Z,60.90
2018-05-04T06:18:35.263Z,60.90
2018-05-04T06:19:08.525Z,60.60
2018-05-04T06:19:41.795Z,61.40
2018-05-04T06:20:15.809Z,61.60
2018-05-04T06:20:49.072Z,61.60
2018-05-04T06:21:23.100Z,61.10
2018-05-04T06:21:56.365Z,61.10
2018-05-04T06:22:29.635Z,60.30
2018-05-04T06:23:03.685Z,59.20
2018-05-04T06:23:37.717Z,59.20
2018-05-04T06:24:10.972Z,59.10
2018-05-04T06:24:44.253Z,58.20
2018-05-04T06:25:17.537Z,58.50
2018-05-04T06:25:50.805Z,57.40
2018-05-04T06:26:24.083Z,56.80
2018-05-04T06:26:57.341Z,57.60
2018-05-04T06:27:30.605Z,59.10
2018-05-04T06:28:03.890Z,59.40
2018-05-04T06:28:37.158Z,59.40
2018-05-04T06:29:10.425Z,58.90
2018-05-04T06:29:44.455Z,57.80
2018-05-04T06:30:17.711Z,57.80
2018-05-04T06:30:50.984Z,57.40
2018-05-04T06:31:24.256Z,58.50
2018-05-04T06:31:58.293Z,57.40
2018-05-04T06:32:31.562Z,57.40
2018-05-04T06:33:04.845Z,56.80
2018-05-04T06:33:38.104Z,57.20
2018-05-04T06:34:11.393Z,57.30
2018-05-04T06:34:44.667Z,57.20
2018-05-04T06:35:18.688Z,55.40
2018-05-04T06:35:51.945Z,55.40
2018-05-04T06:36:25.217Z,55.10
2018-05-04T06:36:58.477Z,55.10
2018-05-04T06:37:31.750Z,55.60
2018-05-04T06:38:05.022Z,55.80
2018-05-04T06:38:38.599Z,55.80
2018-05-04T06:39:11.883Z,56.10
2018-05-04T06:39:45.171Z,56.30
2018-05-04T06:40:18.413Z,56.10
2018-05-04T06:40:51.683Z,56.80
2018-05-04T06:41:24.957Z,56.50
2018-05-04T06:41:58.971Z,55.80
2018-05-04T06:42:32.245Z,55.90
2018-05-04T06:43:05.509Z,56.10
2018-05-04T06:43:38.788Z,55.90
2018-05-04T06:44:12.061Z,55.90
2018-05-04T06:44:46.125Z,55.80
2018-05-04T06:45:19.397Z,55.90
2018-05-04T06:45:52.698Z,55.40
2018-05-04T06:46:27.457Z,56.10
2018-05-04T06:47:00.756Z,56.00
2018-05-04T06:47:34.266Z,56.00
2018-05-04T06:48:07.542Z,56.40
2018-05-04T06:48:40.865Z,56.00
2018-05-04T06:49:14.104Z,56.60
2018-05-04T06:49:47.389Z,56.20
2018-05-04T06:50:20.653Z,55.90
2018-05-04T06:50:53.917Z,56.50
2018-05-04T06:51:27.192Z,56.20
2018-05-04T06:52:00.457Z,56.00
2018-05-04T06:52:33.728Z,56.50
2018-05-04T06:53:06.985Z,56.20
2018-05-04T06:53:40.268Z,56.10
2018-05-04T06:54:14.291Z,57.50
2018-05-04T06:54:47.552Z,57.40
2018-05-04T06:55:21.594Z,56.60
2018-05-04T06:55:54.859Z,56.60
2018-05-04T06:56:28.116Z,56.90
2018-05-04T06:57:02.139Z,56.40
2018-05-04T06:57:35.408Z,56.40
2018-05-04T06:58:08.672Z,55.90
2018-05-04T06:58:42.713Z,55.90
2018-05-04T06:59:15.991Z,56.00
2018-05-04T06:59:49.278Z,56.10
2018-05-04T07:00:22.536Z,56.00
2018-05-04T07:00:55.797Z,55.70
2018-05-04T07:01:29.057Z,56.10
2018-05-04T07:02:02.361Z,55.40
2018-05-04T07:02:35.626Z,55.40
2018-05-04T07:03:08.892Z,56.00
2018-05-04T07:03:42.168Z,55.90
2018-05-04T07:04:15.433Z,55.60
2018-05-04T07:04:48.712Z,55.80
2018-05-04T07:05:21.972Z,55.50
2018-05-04T07:05:55.233Z,56.40
2018-05-04T07:06:28.562Z,56.00
2018-05-04T07:07:01.821Z,55.50
2018-05-04T07:07:35.096Z,55.40
2018-05-04T07:08:09.149Z,55.60
2018-05-04T07:08:43.206Z,56.10
2018-05-04T07:09:16.466Z,56.20
2018-05-04T07:09:49.727Z,55.40
2018-05-04T07:10:23.064Z,56.00
2018-05-04T07:10:56.267Z,55.90
2018-05-04T07:11:30.300Z,55.90
2018-05-04T07:12:03.589Z,55.90
2018-05-04T07:12:36.860Z,55.50